»·PEaware :: WJA1698 CYVR-KLAX

WJA1698 :: CYVR-KLAX

FLIGHT INFORMATION

Flight Status: Arrived
Operator:
Westjet Airlines
More flights by this operator :: More flights under this callsign
Pilot: Ryan B. (8502)
Aircraft: BOEING 767-300
(B763)
More flights by this aircraft type
Origin: CYVR Vancouver Intl
Canada
Destination: KLAX Los Angeles Intl
United States
More flights between these airports :: More routes between these airports
Route: YVR J5 LKV FRA DERBB SADDE7
File this flight plan on PilotEdge
Remarks:
Altitude:
(Current/Filed)
34,000ft
Speed:
(Current/Filed)
445kts
Departed: 18-Nov-16 07:18 PM
Arrived: 18-Nov-16 09:44 PM
Distance/Time
Traveled:
939nm/2:25
Distance/Time
To Go:
Arrived

Flight Plot

Page will automatically refresh every two minutes.

Flight plan parsing failed; only flown route is shown


Map Options




Map Legend


Flown Route
Filed Route
Departure Airport
Arrival Airport
Navaid (VOR, NDB)
Fix

Horizontal Profiles

Position Reports

Time Latitude Longitude Heading Altitude Ground
Speed
18-Nov-16 19:09 49.199492 -123.169734 100 18ft 14kts
18-Nov-16 19:10 49.198675 -123.162686 96 16ft 17kts
18-Nov-16 19:11 49.200734 -123.161487 267 15ft 13kts
18-Nov-16 19:12 49.203468 -123.185795 283 14ft 168kts
18-Nov-16 19:13 49.212938 -123.264575 278 1987ft 204kts
18-Nov-16 19:14 49.170944 -123.325653 171 4256ft 255kts
18-Nov-16 19:15 49.122447 -123.259987 119 7110ft 247kts
18-Nov-16 19:16 49.085976 -123.169536 125 9601ft 254kts
18-Nov-16 19:17 49.020249 -123.123360 163 11032ft 294kts
18-Nov-16 19:18 48.936327 -123.085000 165 12822ft 332kts
18-Nov-16 19:19 48.845116 -123.043871 166 15564ft 354kts
18-Nov-16 19:20 48.749404 -123.000880 167 18190ft 368kts
18-Nov-16 19:21 48.649855 -122.956362 168 20535ft 383kts
18-Nov-16 19:22 48.546284 -122.910231 168 22640ft 398kts
18-Nov-16 19:23 48.438106 -122.862262 169 24466ft 411kts
18-Nov-16 19:24 48.327534 -122.813458 169 26092ft 423kts
18-Nov-16 19:25 48.213647 -122.763425 170 27504ft 433kts
18-Nov-16 19:26 48.117316 -122.721289 170 28514ft 442kts
18-Nov-16 19:27 47.998250 -122.669439 170 29581ft 452kts
18-Nov-16 19:28 47.880500 -122.618373 171 30857ft 452kts
18-Nov-16 19:29 47.740755 -122.558116 171 32209ft 451kts
18-Nov-16 19:30 47.641381 -122.515461 172 33005ft 450kts
18-Nov-16 19:31 47.524161 -122.465363 172 33807ft 449kts
18-Nov-16 19:32 47.408514 -122.416168 172 33837ft 448kts
18-Nov-16 19:33 47.295754 -122.368231 174 33803ft 419kts
18-Nov-16 19:34 47.189328 -122.322754 174 33799ft 413kts
18-Nov-16 19:35 47.081539 -122.277153 174 33798ft 412kts
18-Nov-16 19:36 46.973398 -122.231922 175 33796ft 417kts
18-Nov-16 19:37 46.860974 -122.185146 174 33822ft 436kts
18-Nov-16 19:38 46.741993 -122.135809 174 33819ft 452kts
18-Nov-16 19:39 46.619534 -122.085264 174 33812ft 462kts
18-Nov-16 19:40 46.495744 -122.034402 173 33810ft 463kts
18-Nov-16 19:41 46.372165 -121.983894 173 33819ft 463kts
18-Nov-16 19:42 46.248521 -121.933614 174 33825ft 463kts
18-Nov-16 19:43 46.124560 -121.883440 173 33826ft 463kts
18-Nov-16 19:44 46.000869 -121.833606 174 33824ft 462kts
18-Nov-16 19:45 45.878853 -121.784674 174 33838ft 463kts
18-Nov-16 19:46 45.754540 -121.735047 174 33839ft 464kts
18-Nov-16 19:47 45.630449 -121.685735 173 33837ft 464kts
18-Nov-16 19:48 45.506278 -121.636618 174 33864ft 464kts
18-Nov-16 19:49 45.382262 -121.587789 174 33901ft 464kts
18-Nov-16 19:50 45.258099 -121.539123 174 33938ft 464kts
18-Nov-16 19:51 45.133549 -121.490525 174 33973ft 464kts
18-Nov-16 19:52 45.009289 -121.442252 174 34011ft 463kts
18-Nov-16 19:53 44.886602 -121.394814 174 33988ft 458kts
18-Nov-16 19:54 44.765071 -121.348039 175 33925ft 459kts
18-Nov-16 19:55 44.642729 -121.300080 174 33909ft 459kts
18-Nov-16 19:56 44.519664 -121.252931 175 33909ft 459kts
18-Nov-16 19:57 44.396649 -121.206166 174 33906ft 459kts
18-Nov-16 19:58 44.273055 -121.159420 175 33901ft 463kts
18-Nov-16 19:59 44.148231 -121.112420 175 33903ft 468kts
18-Nov-16 20:00 44.021984 -121.065080 175 33901ft 473kts
18-Nov-16 20:01 43.894273 -121.017405 175 33907ft 479kts
18-Nov-16 20:02 43.765650 -120.969598 175 33914ft 485kts
18-Nov-16 20:03 43.634573 -120.921092 175 33916ft 488kts
18-Nov-16 20:04 43.503603 -120.872836 175 33912ft 489kts
18-Nov-16 20:05 43.372647 -120.824820 175 33913ft 488kts
18-Nov-16 20:06 43.241492 -120.776947 175 33915ft 489kts
18-Nov-16 20:07 43.109926 -120.729125 175 33934ft 489kts
18-Nov-16 20:08 42.978659 -120.681622 175 33965ft 489kts
18-Nov-16 20:09 42.847896 -120.634511 176 33979ft 488kts
18-Nov-16 20:10 42.716034 -120.587274 175 33980ft 496kts
18-Nov-16 20:11 42.582224 -120.539479 175 33976ft 497kts
18-Nov-16 20:12 42.448994 -120.496149 184 33972ft 481kts
18-Nov-16 20:13 42.315812 -120.474824 182 33973ft 484kts
18-Nov-16 20:14 42.182720 -120.451069 182 33971ft 484kts
18-Nov-16 20:15 42.049742 -120.427062 182 33970ft 483kts
18-Nov-16 20:16 41.917524 -120.403241 182 33968ft 483kts
18-Nov-16 20:17 41.785618 -120.379569 182 33983ft 483kts
18-Nov-16 20:18 41.652619 -120.355801 182 33980ft 484kts
18-Nov-16 20:19 41.520115 -120.331377 182 33959ft 482kts
18-Nov-16 20:20 41.388341 -120.307704 183 33955ft 473kts
18-Nov-16 20:21 41.258304 -120.284735 183 33956ft 472kts
18-Nov-16 20:22 41.128229 -120.261871 183 33957ft 471kts
18-Nov-16 20:23 40.998161 -120.239105 182 33950ft 472kts
18-Nov-16 20:24 40.870106 -120.216764 182 33994ft 472kts
18-Nov-16 20:25 40.740222 -120.194204 182 34022ft 473kts
18-Nov-16 20:26 40.609951 -120.171647 182 34019ft 472kts
18-Nov-16 20:27 40.501601 -120.152962 182 34018ft 473kts
18-Nov-16 20:28 40.349168 -120.126784 182 34015ft 474kts
18-Nov-16 20:29 40.241057 -120.108286 182 34044ft 474kts
18-Nov-16 20:30 40.110512 -120.086022 182 34041ft 475kts
18-Nov-16 20:31 39.979539 -120.063775 182 34041ft 475kts
18-Nov-16 20:32 39.851826 -120.042174 182 34053ft 476kts
18-Nov-16 20:33 39.720635 -120.020057 182 34048ft 477kts
18-Nov-16 20:34 39.588971 -119.997950 182 34048ft 478kts
18-Nov-16 20:35 39.457707 -119.975988 182 34051ft 478kts
18-Nov-16 20:36 39.325788 -119.954008 182 34063ft 479kts
18-Nov-16 20:37 39.194190 -119.932164 182 34071ft 479kts
18-Nov-16 20:38 39.062322 -119.910356 182 34057ft 479kts
18-Nov-16 20:39 38.930105 -119.888574 182 34054ft 480kts
18-Nov-16 20:40 38.801416 -119.867446 182 34069ft 480kts
18-Nov-16 20:41 38.669500 -119.845871 182 34068ft 480kts
18-Nov-16 20:42 38.536977 -119.824280 182 34070ft 481kts
18-Nov-16 20:43 38.404330 -119.802746 182 34076ft 482kts
18-Nov-16 20:44 38.271618 -119.781280 182 34077ft 482kts
18-Nov-16 20:45 38.138815 -119.759878 182 34073ft 482kts
18-Nov-16 20:46 38.005949 -119.738546 182 34072ft 482kts
18-Nov-16 20:47 37.874825 -119.717569 182 34082ft 482kts
18-Nov-16 20:48 37.741939 -119.696390 182 34084ft 483kts
18-Nov-16 20:49 37.609297 -119.675307 182 34119ft 480kts
18-Nov-16 20:50 37.477794 -119.654500 182 34101ft 478kts
18-Nov-16 20:51 37.346417 -119.633779 182 34077ft 478kts
18-Nov-16 20:52 37.214823 -119.613095 182 34079ft 477kts
18-Nov-16 20:53 37.084077 -119.594249 187 34063ft 467kts
18-Nov-16 20:54 36.955314 -119.599283 188 34074ft 465kts
18-Nov-16 20:55 36.827528 -119.602791 188 34088ft 468kts
18-Nov-16 20:56 36.697988 -119.606106 188 34085ft 469kts
18-Nov-16 20:57 36.567217 -119.609398 188 34085ft 470kts
18-Nov-16 20:58 36.437599 -119.612653 188 34081ft 469kts
18-Nov-16 20:59 36.307506 -119.615872 188 34076ft 468kts
18-Nov-16 21:00 36.177833 -119.619110 188 34083ft 468kts
18-Nov-16 21:01 36.048042 -119.622329 188 34078ft 468kts
18-Nov-16 21:02 35.918486 -119.625533 188 34072ft 469kts
18-Nov-16 21:03 35.791188 -119.628683 188 34084ft 470kts
18-Nov-16 21:04 35.672108 -119.631593 188 34078ft 468kts
18-Nov-16 21:05 35.542764 -119.634748 188 34053ft 463kts
18-Nov-16 21:06 35.421264 -119.637560 189 33861ft 411kts
18-Nov-16 21:07 35.307995 -119.640361 187 33222ft 410kts
18-Nov-16 21:08 35.196549 -119.591797 153 31900ft 458kts
18-Nov-16 21:09 35.092760 -119.502226 153 29599ft 455kts
18-Nov-16 21:10 34.990719 -119.415199 152 27439ft 440kts
18-Nov-16 21:11 34.894801 -119.333575 150 25541ft 424kts
18-Nov-16 21:12 34.800724 -119.253285 150 23772ft 413kts
18-Nov-16 21:13 34.707844 -119.175289 150 22019ft 401kts
18-Nov-16 21:14 34.617846 -119.099831 150 20347ft 390kts
18-Nov-16 21:15 34.529837 -119.026016 149 18615ft 379kts
18-Nov-16 21:16 34.444126 -118.954309 149 16970ft 372kts
18-Nov-16 21:17 34.359468 -118.884942 156 15088ft 367kts
18-Nov-16 21:18 34.265821 -118.847954 165 13868ft 332kts
18-Nov-16 21:19 34.178188 -118.815700 165 12193ft 323kts
18-Nov-16 21:20 34.098602 -118.786509 165 11627ft 284kts
18-Nov-16 21:21 34.038379 -118.735098 104 11048ft 289kts
18-Nov-16 21:22 34.027483 -118.639495 98 9779ft 279kts
18-Nov-16 21:23 34.019504 -118.555125 96 8897ft 250kts
18-Nov-16 21:24 34.013248 -118.488263 95 7737ft 245kts
18-Nov-16 21:25 34.013468 -118.426928 81 7101ft 213kts
18-Nov-16 21:26 34.018349 -118.376943 81 6324ft 196kts
18-Nov-16 21:27 34.022507 -118.335873 81 5326ft 193kts
18-Nov-16 21:28 34.026317 -118.293320 85 4292ft 188kts
18-Nov-16 21:29 34.029537 -118.251407 84 3273ft 184kts
18-Nov-16 21:30 34.017588 -118.213726 157 2648ft 180kts
18-Nov-16 21:31 33.982248 -118.212322 181 2599ft 177kts
18-Nov-16 21:32 33.953158 -118.226151 243 2591ft 176kts
18-Nov-16 21:33 33.954606 -118.263379 281 2600ft 165kts
18-Nov-16 21:34 33.960094 -118.298771 275 2008ft 153kts
18-Nov-16 21:35 33.958737 -118.336793 262 1303ft 150kts
18-Nov-16 21:36 33.954806 -118.374816 262 679ft 150kts
18-Nov-16 21:37 33.950320 -118.419408 262 123ft 66kts
18-Nov-16 21:38 33.946449 -118.427779 173 112ft 4kts
18-Nov-16 21:39 33.946200 -118.427588 118 112ft 6kts
18-Nov-16 21:40 33.946555 -118.425035 83 116ft 15kts
18-Nov-16 21:41 33.947053 -118.420205 83 123ft 19kts
18-Nov-16 21:42 33.947720 -118.414315 75 126ft 22kts
18-Nov-16 21:43 33.947425 -118.409607 100 126ft 18kts
18-Nov-16 21:44 33.945727 -118.409661 271 124ft 3kts
18-Nov-16 21:45 33.945727 -118.409733 268 124ft 0kts

Navigation Log

Ident Type
Flight plan parsing failed, navigation log unavailable